Airport View

Enter AWOS ICAO identifier for current METAR.

ex. KFNL

KMVN 220056Z AUTO 01005KT 5SM UP BR OVC012 02/02 A3049 RMK AO2 RAE56UPB56 SLP330 P0001 T00220017 FZRANO

22 Feb 2018 01:12

Frequency: 113.8

Phone: 618-242-7933

Other Area AWOS: KENL - KSLO - KFWC - KFOA

TAF AMD KBLV 220046Z 2200/2306 02009KT 9999 OVC004 620159 QNH3046INS TEMPO 2200/2206 03009KT 8000 -FZRA OVC007 690001 BECMG 2205/2206 02012KT 8000 -SHRA BKN005 BKN010 OVC020 610709 QNH3035INS BECMG 2217/2218 09009KT 9999 NSW OVC005 620059 QNH3029INS BECMG 2300/2301 12006KT 8000 -SHRA OVC005 QNH3016INS TX08/2221Z TN00/2200Z